Time;durP1;ratioP1;P1;durP2;ratioP2;P2;SDS_P1;SDS_P2;PMS_P1;PMS_P2;Temp;Humidity;BMP_temperature;BMP_pressure;BME280_temperature;BME280_humidity;BME280_pressure;Samples;Min_cycle;Max_cycle;Signal;HPM_P1;HPM_P2
2022/04/11 00:01:56;;;;;;;4.07;2.17;;;5.10;99.90;;;;;;5055507;28;20039;-78
2022/04/11 00:04:22;;;;;;;7.80;2.20;;;5.00;99.90;;;;;;5056074;28;20050;-78
2022/04/11 00:06:48;;;;;;;2.90;2.20;;;5.00;99.90;;;;;;5055944;28;20032;-78
2022/04/11 00:09:13;;;;;;;7.13;2.57;;;5.00;99.90;;;;;;5073838;28;20353;-78
2022/04/11 00:11:39;;;;;;;4.17;2.40;;;4.90;99.90;;;;;;5055486;28;20033;-78
2022/04/11 00:14:05;;;;;;;4.40;2.50;;;4.90;99.90;;;;;;5056216;28;20089;-78
2022/04/11 00:16:31;;;;;;;2.87;2.40;;;4.90;99.90;;;;;;5056031;28;20466;-78
2022/04/11 00:18:57;;;;;;;5.97;2.40;;;4.90;99.90;;;;;;5055420;28;20143;-78
2022/04/11 00:21:22;;;;;;;4.33;2.43;;;4.90;99.90;;;;;;5056284;28;20111;-78
2022/04/11 00:23:48;;;;;;;5.47;2.53;;;4.90;99.90;;;;;;5073221;28;20036;-78
2022/04/11 00:26:14;;;;;;;4.13;2.37;;;4.80;99.90;;;;;;5056190;28;20107;-78
2022/04/11 00:28:40;;;;;;;6.17;2.30;;;4.90;99.90;;;;;;5073410;28;20050;-78
2022/04/11 00:31:05;;;;;;;3.83;2.70;;;4.80;99.90;;;;;;5073639;28;20024;-78
2022/04/11 00:33:31;;;;;;;9.03;2.73;;;4.90;99.90;;;;;;5055582;28;20115;-78
2022/04/11 00:35:57;;;;;;;4.87;2.83;;;4.80;99.90;;;;;;5073290;28;20373;-78
2022/04/11 00:38:22;;;;;;;4.80;2.33;;;4.80;99.90;;;;;;5055848;28;20027;-78
2022/04/11 00:40:48;;;;;;;6.00;2.73;;;4.70;99.90;;;;;;5055408;28;20033;-78
2022/04/11 00:43:36;;;;;;;4.00;2.50;;;4.70;99.90;;;;;;5056042;28;20017;-78
2022/04/11 00:46:03;;;;;;;2.80;2.23;;;4.70;99.90;;;;;;5055123;28;20016;-78
2022/04/11 00:48:29;;;;;;;4.23;2.40;;;4.70;99.90;;;;;;5073468;28;20479;-78
2022/04/11 00:51:02;;;;;;;6.70;2.60;;;4.70;99.90;;;;;;5073037;28;20103;-78
2022/04/11 00:53:31;;;;;;;4.90;2.20;;;4.70;99.90;;;;;;5055804;28;20031;-78
2022/04/11 00:55:58;;;;;;;6.10;2.93;;;4.70;99.90;;;;;;5055165;28;20173;-78
2022/04/11 00:58:24;;;;;;;6.37;2.07;;;4.70;99.90;;;;;;5055622;28;20043;-78
2022/04/11 01:00:50;;;;;;;3.67;2.20;;;4.70;99.90;;;;;;5055154;28;20056;-78
2022/04/11 01:03:16;;;;;;;6.97;2.60;;;4.70;99.90;;;;;;5073508;28;20016;-78
2022/04/11 01:05:42;;;;;;;6.87;2.60;;;4.70;99.90;;;;;;5054836;28;20039;-78
2022/04/11 01:08:09;;;;;;;5.70;2.10;;;4.70;99.90;;;;;;5055052;28;20028;-78
2022/04/11 01:10:36;;;;;;;4.10;2.20;;;4.70;99.90;;;;;;5072875;28;20036;-78
2022/04/11 01:13:02;;;;;;;3.53;2.30;;;4.70;99.90;;;;;;5072678;28;20493;-78
2022/04/11 01:15:28;;;;;;;4.00;2.67;;;4.60;99.90;;;;;;5073191;28;20036;-77
2022/04/11 01:17:54;;;;;;;5.43;2.40;;;4.60;99.90;;;;;;5054795;28;20021;-78
2022/04/11 01:20:20;;;;;;;5.67;2.40;;;4.60;99.90;;;;;;5054991;28;20078;-78
2022/04/11 01:22:47;;;;;;;3.50;1.90;;;4.60;99.90;;;;;;5076194;28;20381;-78
2022/04/11 01:25:13;;;;;;;4.63;2.03;;;4.60;99.90;;;;;;5076910;28;20087;-78
2022/04/11 01:27:40;;;;;;;3.90;2.40;;;4.60;99.90;;;;;;5076818;28;20032;-78
2022/04/11 01:30:09;;;;;;;4.20;2.07;;;4.60;99.90;;;;;;5076167;28;20024;-78
2022/04/11 01:32:35;;;;;;;3.93;2.33;;;4.70;99.90;;;;;;5058918;28;20044;-77
2022/04/11 01:35:01;;;;;;;3.77;2.20;;;4.60;99.90;;;;;;5058285;28;20036;-78
2022/04/11 01:37:28;;;;;;;3.70;2.07;;;4.60;99.90;;;;;;5058369;28;20031;-78
2022/04/11 01:39:54;;;;;;;3.57;2.40;;;4.60;99.90;;;;;;5058178;28;20032;-78
2022/04/11 01:42:19;;;;;;;3.63;2.10;;;4.70;99.90;;;;;;5058679;28;20017;-78
2022/04/11 01:44:45;;;;;;;4.67;2.10;;;4.60;99.90;;;;;;5075462;28;20030;-78
2022/04/11 01:47:11;;;;;;;5.17;2.20;;;4.70;99.90;;;;;;5058646;28;20017;-78
2022/04/11 01:49:37;;;;;;;4.13;2.30;;;4.70;99.90;;;;;;5058391;28;20025;-78
2022/04/11 01:52:03;;;;;;;5.13;2.00;;;4.70;99.90;;;;;;5058097;28;20020;-77
2022/04/11 01:54:30;;;;;;;4.03;2.30;;;4.70;99.90;;;;;;5076290;28;20095;-78
2022/04/11 01:56:55;;;;;;;2.70;2.20;;;4.70;99.90;;;;;;5057859;28;20020;-77
2022/04/11 01:59:21;;;;;;;3.67;2.00;;;4.70;99.90;;;;;;5076067;28;20509;-78
2022/04/11 02:01:46;;;;;;;5.60;2.10;;;4.80;99.90;;;;;;5075533;28;20024;-77
2022/04/11 02:04:12;;;;;;;7.80;2.30;;;4.80;99.90;;;;;;5076302;28;20016;-78
2022/04/11 02:06:37;;;;;;;2.50;1.80;;;4.70;99.90;;;;;;5075732;28;20029;-78
2022/04/11 02:09:04;;;;;;;5.17;1.90;;;4.80;99.90;;;;;;5057547;28;20108;-78
2022/04/11 02:11:29;;;;;;;5.37;2.67;;;4.80;99.90;;;;;;5058531;28;20032;-78
2022/04/11 02:13:55;;;;;;;3.37;1.90;;;4.80;99.90;;;;;;5057271;28;20020;-78
2022/04/11 02:16:23;;;;;;;8.43;2.47;;;4.80;99.90;;;;;;5058325;28;20020;-78
2022/04/11 02:18:48;;;;;;;6.17;2.13;;;4.80;99.90;;;;;;5057538;28;20084;-78
2022/04/11 02:21:14;;;;;;;4.77;2.10;;;4.80;99.90;;;;;;5058131;28;20067;-78
2022/04/11 02:23:40;;;;;;;4.23;2.27;;;4.80;99.90;;;;;;5057562;28;20044;-77
2022/04/11 02:26:05;;;;;;;4.97;2.20;;;4.80;99.90;;;;;;5075113;28;20029;-78
2022/04/11 02:28:31;;;;;;;5.00;2.30;;;4.80;99.90;;;;;;5075556;28;20016;-78
2022/04/11 02:30:57;;;;;;;5.03;2.10;;;4.80;99.90;;;;;;5057442;28;20028;-77
2022/04/11 02:33:22;;;;;;;6.27;2.43;;;4.90;99.90;;;;;;5057550;28;20031;-78
2022/04/11 02:35:48;;;;;;;4.90;2.30;;;4.90;99.90;;;;;;5057346;28;20032;-78
2022/04/11 02:38:13;;;;;;;4.03;2.37;;;4.90;99.90;;;;;;5075564;28;20055;-78
2022/04/11 02:40:39;;;;;;;3.23;2.30;;;4.80;99.90;;;;;;5057773;28;20055;-78
2022/04/11 02:43:05;;;;;;;5.13;2.43;;;4.90;99.90;;;;;;5075125;28;20021;-78
2022/04/11 02:45:31;;;;;;;3.23;2.33;;;4.90;99.90;;;;;;5057407;28;20020;-78
2022/04/11 02:47:57;;;;;;;4.20;2.30;;;4.90;99.90;;;;;;5057109;28;20024;-78
2022/04/11 02:50:22;;;;;;;4.43;2.10;;;4.90;99.90;;;;;;5057572;28;20031;-78
2022/04/11 02:52:48;;;;;;;5.07;2.53;;;4.90;99.90;;;;;;5056940;28;20388;-78
2022/04/11 02:55:14;;;;;;;4.10;2.30;;;4.90;99.90;;;;;;5057267;28;20017;-78
2022/04/11 02:57:40;;;;;;;3.10;2.10;;;4.90;99.90;;;;;;5057508;28;20016;-77
2022/04/11 03:00:09;;;;;;;3.40;2.60;;;5.00;99.90;;;;;;5074414;28;20028;-77
2022/04/11 03:02:34;;;;;;;4.20;2.20;;;5.00;99.90;;;;;;5074946;28;20028;-78
2022/04/11 03:05:00;;;;;;;2.30;1.90;;;5.00;99.90;;;;;;5056716;28;20078;-78
2022/04/11 03:07:27;;;;;;;4.43;2.27;;;5.00;99.90;;;;;;5074967;28;20510;-78
2022/04/11 03:09:53;;;;;;;5.23;2.03;;;5.10;99.90;;;;;;5056637;28;20037;-78
2022/04/11 03:12:19;;;;;;;4.13;2.20;;;5.10;99.90;;;;;;5056970;28;20058;-78
2022/04/11 03:14:47;;;;;;;8.73;2.90;;;5.10;99.90;;;;;;5057065;28;20048;-78
2022/04/11 03:17:12;;;;;;;3.70;2.33;;;5.10;99.90;;;;;;5074199;28;20047;-78
2022/04/11 03:19:38;;;;;;;5.67;2.70;;;5.00;99.90;;;;;;5074780;28;20025;-78
2022/04/11 03:22:04;;;;;;;6.40;2.50;;;5.00;99.90;;;;;;5056668;28;20052;-78
2022/04/11 03:24:29;;;;;;;5.03;2.73;;;5.00;99.90;;;;;;5074404;28;20047;-78
2022/04/11 03:26:55;;;;;;;7.27;3.10;;;4.90;99.90;;;;;;5056483;28;20111;-77
2022/04/11 03:29:21;;;;;;;4.77;3.03;;;4.90;99.90;;;;;;5057035;28;20023;-78
2022/04/11 03:31:48;;;;;;;4.53;3.00;;;4.80;99.90;;;;;;5057017;28;20111;-78
2022/04/11 03:34:14;;;;;;;5.23;3.10;;;4.80;99.90;;;;;;5056413;28;20056;-78
2022/04/11 03:36:39;;;;;;;5.33;2.93;;;4.80;99.90;;;;;;5057460;28;20461;-77
2022/04/11 03:39:05;;;;;;;4.67;3.20;;;4.80;99.90;;;;;;5056112;28;20043;-78
2022/04/11 03:41:31;;;;;;;6.03;3.20;;;4.70;99.90;;;;;;5056599;28;20036;-77
2022/04/11 03:43:56;;;;;;;4.27;3.30;;;4.70;99.90;;;;;;5073175;28;20055;-78
2022/04/11 03:46:22;;;;;;;6.57;3.43;;;4.60;99.90;;;;;;5056630;28;20016;-77
2022/04/11 03:48:48;;;;;;;8.07;3.70;;;4.60;99.90;;;;;;5074138;28;20162;-78
2022/04/11 03:51:13;;;;;;;11.63;4.00;;;4.70;99.90;;;;;;5073609;28;20453;-78
2022/04/11 03:53:41;;;;;;;9.30;3.57;;;4.70;99.90;;;;;;5056702;28;20017;-77
2022/04/11 03:56:06;;;;;;;6.13;3.70;;;4.70;99.90;;;;;;5056335;28;20022;-77
2022/04/11 03:58:32;;;;;;;7.13;3.97;;;4.60;99.90;;;;;;5074170;28;20021;-78
2022/04/11 04:00:59;;;;;;;5.87;3.97;;;4.60;99.90;;;;;;5073507;28;20462;-77
2022/04/11 04:03:25;;;;;;;9.07;4.67;;;4.60;99.90;;;;;;5056030;28;20115;-78
2022/04/11 04:05:51;;;;;;;7.97;4.23;;;4.50;99.90;;;;;;5056337;28;20067;-78
2022/04/11 04:08:20;;;;;;;9.57;4.03;;;4.50;99.90;;;;;;5073656;28;20365;-78
2022/04/11 04:10:45;;;;;;;7.43;4.03;;;4.50;99.90;;;;;;5056121;28;20111;-78
2022/04/11 04:13:11;;;;;;;8.73;4.60;;;4.50;99.90;;;;;;5055637;28;20115;-77
2022/04/11 04:15:37;;;;;;;8.07;4.37;;;4.50;99.90;;;;;;5056157;28;20026;-77
2022/04/11 04:18:03;;;;;;;6.60;4.10;;;4.50;99.90;;;;;;5073409;28;20021;-77
2022/04/11 04:20:29;;;;;;;6.37;4.30;;;4.40;99.90;;;;;;5055688;28;20064;-77
2022/04/11 04:22:56;;;;;;;6.50;4.33;;;4.30;99.90;;;;;;5055402;28;20052;-78
2022/04/11 04:25:23;;;;;;;11.80;4.97;;;4.30;99.90;;;;;;5055536;28;20093;-78
2022/04/11 04:27:48;;;;;;;10.60;5.00;;;4.30;99.90;;;;;;5055984;28;20029;-78
2022/04/11 04:30:14;;;;;;;7.33;4.37;;;4.20;99.90;;;;;;5055280;28;20020;-77
2022/04/11 04:32:43;;;;;;;7.33;4.47;;;4.20;99.90;;;;;;5055228;28;20526;-77
2022/04/11 04:35:09;;;;;;;8.97;4.23;;;4.20;99.90;;;;;;5054507;28;20020;-77
2022/04/11 04:37:35;;;;;;;7.53;4.70;;;4.30;99.90;;;;;;5072872;28;20334;-77
2022/04/11 04:40:02;;;;;;;8.37;4.90;;;4.20;99.90;;;;;;5054565;28;20044;-78
2022/04/11 04:42:28;;;;;;;7.73;4.50;;;4.30;99.90;;;;;;5055672;28;20039;-78
2022/04/11 04:44:54;;;;;;;7.67;4.40;;;4.30;99.90;;;;;;5055232;28;20040;-79
2022/04/11 04:47:21;;;;;;;8.00;4.17;;;4.20;99.90;;;;;;5073377;28;20024;-78
2022/04/11 04:49:47;;;;;;;8.77;4.83;;;4.10;99.90;;;;;;5073176;28;20036;-78
2022/04/11 04:52:13;;;;;;;7.90;4.70;;;4.10;99.90;;;;;;5055055;28;20020;-78
2022/04/11 04:54:39;;;;;;;8.40;4.73;;;4.10;99.90;;;;;;5055432;28;20107;-78
2022/04/11 04:57:06;;;;;;;7.00;4.50;;;4.00;99.90;;;;;;5057593;28;20028;-78
2022/04/11 04:59:32;;;;;;;6.97;4.60;;;4.00;99.90;;;;;;5059707;28;20024;-78
2022/04/11 05:01:57;;;;;;;9.37;4.37;;;4.00;99.90;;;;;;5056097;28;20105;-79
2022/04/11 05:04:24;;;;;;;9.30;5.07;;;4.00;99.90;;;;;;5059523;28;20453;-77
2022/04/11 05:06:49;;;;;;;9.90;3.97;;;4.10;99.90;;;;;;5067271;28;20024;-79
2022/04/11 05:09:15;;;;;;;5.80;4.43;;;4.00;99.90;;;;;;5085836;28;20089;-78
2022/04/11 05:11:41;;;;;;;6.97;4.40;;;4.00;99.90;;;;;;5061108;28;20029;-78
2022/04/11 05:14:07;;;;;;;12.47;4.37;;;4.10;99.90;;;;;;5072609;28;20024;-79
2022/04/11 05:16:32;;;;;;;9.77;4.50;;;4.10;99.90;;;;;;5079982;28;20020;-78
2022/04/11 05:18:58;;;;;;;11.93;4.97;;;4.10;99.90;;;;;;5084106;28;20024;-78
2022/04/11 05:21:24;;;;;;;8.63;4.57;;;4.00;99.90;;;;;;5074280;28;20568;-79
2022/04/11 05:23:50;;;;;;;6.03;4.43;;;4.00;99.90;;;;;;5090479;28;20135;-79
2022/04/11 05:26:15;;;;;;;7.10;4.80;;;4.00;99.90;;;;;;5077095;28;20043;-79
2022/04/11 05:28:41;;;;;;;8.97;4.73;;;4.00;99.90;;;;;;5068986;28;20020;-79
2022/04/11 05:31:07;;;;;;;8.47;4.80;;;3.90;99.90;;;;;;5061262;28;20032;-79
2022/04/11 05:33:33;;;;;;;7.80;4.50;;;3.90;99.90;;;;;;5070114;28;20028;-79
2022/04/11 05:35:58;;;;;;;10.37;4.37;;;4.00;99.90;;;;;;5059124;28;20112;-79
2022/04/11 05:38:24;;;;;;;10.03;4.63;;;4.00;99.90;;;;;;5089146;28;20029;-78
2022/04/11 05:40:49;;;;;;;9.77;5.13;;;4.10;99.90;;;;;;5081732;28;20358;-79
2022/04/11 05:43:15;;;;;;;8.57;4.73;;;4.10;99.90;;;;;;5063409;28;20336;-79
2022/04/11 05:45:42;;;;;;;7.57;4.60;;;4.10;99.90;;;;;;5071114;28;20020;-79
2022/04/11 05:48:08;;;;;;;7.70;4.77;;;4.10;99.90;;;;;;5058712;28;20028;-78
2022/04/11 05:50:34;;;;;;;10.67;5.27;;;4.10;99.90;;;;;;5087570;28;20060;-79
2022/04/11 05:53:00;;;;;;;10.97;5.37;;;4.20;99.90;;;;;;5064837;28;20109;-79
2022/04/11 05:55:26;;;;;;;7.53;4.80;;;4.20;99.90;;;;;;5080077;28;20020;-78
2022/04/11 05:57:53;;;;;;;8.90;4.80;;;4.20;99.90;;;;;;5069616;28;20021;-79
2022/04/11 06:00:19;;;;;;;7.33;4.20;;;4.20;99.90;;;;;;5074682;28;20055;-79
2022/04/11 06:02:44;;;;;;;10.30;4.90;;;4.40;99.90;;;;;;5064694;28;20495;-79
2022/04/11 06:05:10;;;;;;;8.10;4.63;;;4.40;99.90;;;;;;5063618;28;20021;-79
2022/04/11 06:07:36;;;;;;;8.97;4.93;;;4.50;99.90;;;;;;5068942;28;20508;-78
2022/04/11 06:10:04;;;;;;;8.53;4.37;;;4.40;99.90;;;;;;5057812;28;20044;-79
2022/04/11 06:12:29;;;;;;;9.87;4.87;;;4.50;99.90;;;;;;5069652;28;20017;-79
2022/04/11 06:14:55;;;;;;;7.43;4.60;;;4.50;99.90;;;;;;5082061;28;20024;-79
2022/04/11 06:17:24;;;;;;;10.33;4.40;;;4.60;99.90;;;;;;5079999;28;20025;-79
2022/04/11 06:19:54;;;;;;;7.50;5.10;;;4.60;99.90;;;;;;5071832;28;20130;-79
2022/04/11 06:22:21;;;;;;;10.57;4.90;;;4.70;99.90;;;;;;5058617;28;20048;-79
2022/04/11 06:24:48;;;;;;;8.13;4.50;;;4.70;99.90;;;;;;5092488;28;20493;-79
2022/04/11 06:27:15;;;;;;;9.23;4.30;;;4.80;99.90;;;;;;5063011;28;20024;-78
2022/04/11 06:29:41;;;;;;;5.73;4.27;;;4.80;99.90;;;;;;5088093;28;20029;-78
2022/04/11 06:32:07;;;;;;;6.00;4.00;;;4.90;99.90;;;;;;5057504;28;20029;-79
2022/04/11 06:34:33;;;;;;;6.93;4.37;;;5.00;99.90;;;;;;5068685;28;20048;-79
2022/04/11 06:36:59;;;;;;;9.33;4.60;;;5.10;99.90;;;;;;5081872;28;20111;-79
2022/04/11 06:39:25;;;;;;;6.97;4.07;;;5.20;99.90;;;;;;5079538;28;20108;-77
2022/04/11 06:41:50;;;;;;;10.23;4.13;;;5.20;99.90;;;;;;5071126;28;20495;-79
2022/04/11 06:44:16;;;;;;;6.63;4.00;;;5.30;99.90;;;;;;5057894;28;20227;-79
2022/04/11 06:46:42;;;;;;;8.30;3.83;;;5.40;99.90;;;;;;5066443;28;20021;-79
2022/04/11 06:49:07;;;;;;;7.50;3.60;;;5.40;99.90;;;;;;5064574;28;20028;-79
2022/04/11 06:51:33;;;;;;;5.93;3.77;;;5.40;99.90;;;;;;5077725;28;20043;-79
2022/04/11 06:53:59;;;;;;;9.27;3.50;;;5.40;99.90;;;;;;5055223;28;20517;-79
2022/04/11 06:56:25;;;;;;;6.27;4.00;;;5.50;99.90;;;;;;5070056;28;20414;-79
2022/04/11 06:58:51;;;;;;;6.40;4.43;;;5.60;99.90;;;;;;5083884;28;20370;-79
2022/04/11 07:01:16;;;;;;;9.47;3.63;;;5.70;99.90;;;;;;5059237;28;20290;-79
2022/04/11 07:03:42;;;;;;;5.87;3.73;;;5.70;99.90;;;;;;5069679;28;20056;-79
2022/04/11 07:06:08;;;;;;;6.83;3.80;;;5.80;99.90;;;;;;5056993;28;20028;-79
2022/04/11 07:08:34;;;;;;;10.03;3.70;;;5.90;99.90;;;;;;5086190;28;20082;-79
2022/04/11 07:11:00;;;;;;;6.77;3.40;;;5.90;99.90;;;;;;5063145;28;20036;-79
2022/04/11 07:13:27;;;;;;;5.53;3.30;;;6.00;99.90;;;;;;5060548;28;20052;-79
2022/04/11 07:15:52;;;;;;;6.30;3.43;;;6.00;99.90;;;;;;5070345;28;20082;-79
2022/04/11 07:18:19;;;;;;;5.97;3.30;;;6.20;99.90;;;;;;5075117;28;20103;-79
2022/04/11 07:20:48;;;;;;;7.70;3.40;;;6.20;99.90;;;;;;5084301;28;20118;-79
2022/04/11 07:23:13;;;;;;;5.20;2.70;;;6.30;99.90;;;;;;5082838;28;20415;-79
2022/04/11 07:25:39;;;;;;;6.60;3.20;;;6.30;99.90;;;;;;5077290;28;20087;-79
2022/04/11 07:28:07;;;;;;;6.20;3.33;;;6.40;99.90;;;;;;5069816;28;20024;-78
2022/04/11 07:30:33;;;;;;;5.40;3.00;;;6.40;99.90;;;;;;5077355;28;20024;-79
2022/04/11 07:32:59;;;;;;;4.23;2.87;;;6.50;99.90;;;;;;5080680;28;20024;-79
2022/04/11 07:35:25;;;;;;;5.43;2.93;;;6.50;99.90;;;;;;5060705;28;20449;-79
2022/04/11 07:37:50;;;;;;;7.53;3.00;;;6.60;99.90;;;;;;5069802;28;20039;-79
2022/04/11 07:40:16;;;;;;;4.53;3.03;;;6.70;99.90;;;;;;5074475;28;20040;-79
2022/04/11 07:42:42;;;;;;;6.10;3.00;;;6.80;99.90;;;;;;5066133;28;20027;-79
2022/04/11 07:45:08;;;;;;;5.03;2.70;;;6.90;99.90;;;;;;5081691;28;20028;-79
2022/04/11 07:47:34;;;;;;;4.07;2.80;;;6.90;99.90;;;;;;5058919;28;20031;-79
2022/04/11 07:49:59;;;;;;;8.47;2.90;;;7.00;99.90;;;;;;5087446;28;20028;-80
2022/04/11 07:52:26;;;;;;;3.63;2.43;;;7.00;99.90;;;;;;5076185;28;20369;-79
2022/04/11 07:54:52;;;;;;;6.60;2.77;;;7.10;99.90;;;;;;5064161;28;20432;-79
2022/04/11 07:57:18;;;;;;;4.17;2.43;;;7.10;99.90;;;;;;5052154;28;20220;-79
2022/04/11 07:59:44;;;;;;;5.87;2.80;;;7.20;99.90;;;;;;5068683;28;20319;-79
2022/04/11 08:02:10;;;;;;;5.30;2.73;;;7.30;99.90;;;;;;5073295;28;20489;-79
2022/04/11 08:04:35;;;;;;;6.40;2.57;;;7.40;99.90;;;;;;5066132;28;20027;-79
2022/04/11 08:07:02;;;;;;;2.67;2.10;;;7.50;99.90;;;;;;5061839;28;20111;-79
2022/04/11 08:09:29;;;;;;;6.50;2.50;;;7.60;99.90;;;;;;5058558;28;20035;-79
2022/04/11 08:11:55;;;;;;;4.43;2.50;;;7.60;99.90;;;;;;5069258;28;20115;-79
2022/04/11 08:14:20;;;;;;;4.33;2.40;;;7.70;99.90;;;;;;5056246;28;20099;-79
2022/04/11 08:16:46;;;;;;;4.13;2.27;;;7.70;99.90;;;;;;5082740;28;20017;-79
2022/04/11 08:19:12;;;;;;;4.40;2.60;;;7.70;99.90;;;;;;5081522;28;20024;-79
2022/04/11 08:21:38;;;;;;;4.28;2.47;;;7.90;99.90;;;;;;5057295;28;20047;-79
2022/04/11 08:24:04;;;;;;;4.22;2.30;;;7.90;99.90;;;;;;5071484;28;20063;-79
2022/04/11 08:26:30;;;;;;;4.82;2.22;;;8.00;99.90;;;;;;5066606;28;20123;-79
2022/04/11 08:28:55;;;;;;;3.38;2.10;;;8.20;99.90;;;;;;5079395;28;20024;-78
2022/04/11 08:31:21;;;;;;;4.15;2.17;;;8.30;99.20;;;;;;5076860;28;20032;-79
2022/04/11 08:33:47;;;;;;;4.15;2.42;;;8.30;99.30;;;;;;5068579;28;20035;-79
2022/04/11 08:36:12;;;;;;;4.95;2.63;;;8.50;99.10;;;;;;5073166;28;20020;-79
2022/04/11 08:38:38;;;;;;;2.80;1.98;;;8.50;99.80;;;;;;5065288;28;20058;-79
2022/04/11 08:41:04;;;;;;;3.95;2.05;;;8.60;98.90;;;;;;5061943;28;20123;-79
2022/04/11 08:43:32;;;;;;;5.53;1.98;;;8.50;98.40;;;;;;5076564;28;20025;-79
2022/04/11 08:46:01;;;;;;;3.22;1.75;;;8.60;98.70;;;;;;5068448;28;20036;-79
2022/04/11 08:48:27;;;;;;;3.60;2.03;;;8.70;98.50;;;;;;5057241;28;20411;-78
2022/04/11 08:50:52;;;;;;;7.30;2.25;;;8.80;98.20;;;;;;5063660;28;20036;-79
2022/04/11 08:53:22;;;;;;;5.85;1.98;;;9.00;97.50;;;;;;5063911;28;20024;-80
2022/04/11 08:55:49;;;;;;;2.95;1.70;;;9.00;97.20;;;;;;5073739;28;20037;-79
2022/04/11 08:58:15;;;;;;;2.58;1.58;;;9.00;96.60;;;;;;5054971;28;20040;-79
2022/04/11 09:00:41;;;;;;;2.45;1.80;;;9.00;96.70;;;;;;5082760;28;20029;-78
2022/04/11 09:03:07;;;;;;;4.03;1.70;;;9.00;96.70;;;;;;5062315;28;20469;-79
2022/04/11 09:05:34;;;;;;;2.88;1.60;;;9.00;97.10;;;;;;5058104;28;20025;-79
2022/04/11 09:08:00;;;;;;;4.63;2.20;;;9.10;96.70;;;;;;5068323;28;20054;-80
2022/04/11 09:10:32;;;;;;;4.35;1.80;;;9.10;95.90;;;;;;5074902;28;20094;-79
2022/04/11 09:13:00;;;;;;;3.83;1.60;;;9.20;97.00;;;;;;5090004;28;20437;-79
2022/04/11 09:15:27;;;;;;;3.90;1.75;;;9.50;96.50;;;;;;5090539;28;20064;-79
2022/04/11 09:17:54;;;;;;;2.47;1.63;;;9.50;95.10;;;;;;5054787;28;20028;-79
2022/04/11 09:20:28;;;;;;;3.22;1.75;;;9.50;95.40;;;;;;5069309;28;20358;-79
2022/04/11 09:22:54;;;;;;;3.03;1.35;;;9.60;95.50;;;;;;5079707;28;20082;-79
2022/04/11 09:25:21;;;;;;;3.05;1.58;;;9.60;95.50;;;;;;5067749;28;20044;-80
2022/04/11 09:28:02;;;;;;;2.65;1.83;;;9.70;95.00;;;;;;5069840;28;20025;-79
2022/04/11 09:30:31;;;;;;;4.00;1.77;;;9.70;95.30;;;;;;5049033;28;20032;-79
2022/04/11 09:32:56;;;;;;;4.20;1.80;;;9.90;94.00;;;;;;5046810;28;20025;-79
2022/04/11 09:35:28;;;;;;;3.30;1.75;;;10.00;94.50;;;;;;5056046;28;20075;-79
2022/04/11 09:38:11;;;;;;;2.55;1.48;;;10.00;93.70;;;;;;5065956;28;20362;-79
2022/04/11 09:40:37;;;;;;;3.28;1.80;;;10.10;92.80;;;;;;5061784;28;20041;-79
2022/04/11 09:43:03;;;;;;;3.83;1.60;;;10.20;93.40;;;;;;5051286;28;20048;-79
2022/04/11 09:45:29;;;;;;;2.22;1.60;;;10.30;93.20;;;;;;5053819;28;20446;-79
2022/04/11 09:48:05;;;;;;;3.35;1.35;;;10.50;93.10;;;;;;5068782;28;20024;-79
2022/04/11 09:50:32;;;;;;;3.58;1.70;;;10.50;92.20;;;;;;5057670;28;20446;-79
2022/04/11 09:53:12;;;;;;;3.53;1.70;;;10.60;93.00;;;;;;5062989;28;20086;-79
2022/04/11 09:55:39;;;;;;;3.35;1.65;;;10.80;92.10;;;;;;5064463;28;20103;-79
2022/04/11 09:58:05;;;;;;;4.03;1.40;;;10.80;91.50;;;;;;5067942;28;20032;-80
2022/04/11 10:00:37;;;;;;;3.55;1.45;;;10.80;91.90;;;;;;5057479;28;20039;-80
2022/04/11 10:03:05;;;;;;;3.25;1.80;;;10.80;90.40;;;;;;5052838;28;20050;-79
2022/04/11 10:05:35;;;;;;;2.85;1.40;;;10.90;90.80;;;;;;5058086;28;20033;-79
2022/04/11 10:08:03;;;;;;;3.25;1.80;;;10.90;91.60;;;;;;5070596;28;20107;-80
2022/04/11 10:10:30;;;;;;;3.30;2.03;;;10.90;89.80;;;;;;5065950;28;20061;-79
2022/04/11 10:12:57;;;;;;;3.47;1.60;;;11.00;89.30;;;;;;5062340;28;20044;-80
2022/04/11 10:15:23;;;;;;;2.08;1.70;;;10.90;89.40;;;;;;5057788;28;20036;-79
2022/04/11 10:17:53;;;;;;;4.03;1.67;;;11.10;92.60;;;;;;5069241;28;20020;-79
2022/04/11 10:20:30;;;;;;;2.95;1.58;;;11.30;92.00;;;;;;5056100;28;20036;-79
2022/04/11 10:23:31;;;;;;;4.32;1.90;;;11.30;90.40;;;;;;5062231;28;20024;-79
2022/04/11 10:26:00;;;;;;;4.40;1.65;;;11.40;91.10;;;;;;5067692;28;20052;-79
2022/04/11 10:28:27;;;;;;;2.58;1.90;;;11.30;90.80;;;;;;5055704;28;20103;-80
2022/04/11 10:31:07;;;;;;;4.38;2.00;;;11.30;91.60;;;;;;5063493;28;20917;-79
2022/04/11 10:33:44;;;;;;;7.68;1.90;;;11.40;89.90;;;;;;5065357;28;20025;-80
2022/04/11 10:36:29;;;;;;;3.58;1.77;;;11.40;86.80;;;;;;5054267;28;20028;-80
2022/04/11 10:39:16;;;;;;;3.72;1.73;;;11.30;86.70;;;;;;5062296;28;20051;-79
2022/04/11 10:41:56;;;;;;;2.58;1.50;;;11.40;88.00;;;;;;5067854;28;20043;-77
2022/04/11 10:44:51;;;;;;;4.47;1.35;;;11.60;86.20;;;;;;5040596;28;20176;-79
2022/04/11 10:47:21;;;;;;;3.03;1.38;;;11.70;89.10;;;;;;5059500;28;20032;-79
2022/04/11 10:49:55;;;;;;;4.20;1.55;;;11.80;82.50;;;;;;5067033;28;20115;-79
2022/04/11 10:52:35;;;;;;;2.47;1.55;;;11.90;83.50;;;;;;5055919;28;20062;-77
2022/04/11 10:55:09;;;;;;;2.58;1.30;;;11.90;83.10;;;;;;5062553;28;20025;-77
2022/04/11 10:57:52;;;;;;;1.92;1.30;;;11.90;84.60;;;;;;5050641;28;20029;-79
2022/04/11 11:00:24;;;;;;;1.98;1.42;;;11.80;83.00;;;;;;5037981;28;20547;-78
2022/04/11 11:02:53;;;;;;;3.47;1.95;;;11.80;81.80;;;;;;5059445;28;20080;-79
2022/04/11 11:05:30;;;;;;;3.13;1.80;;;11.90;87.80;;;;;;5057713;28;20516;-78
2022/04/11 11:08:14;;;;;;;2.35;1.67;;;12.10;87.00;;;;;;5066925;28;20047;-77
2022/04/11 11:10:41;;;;;;;2.90;1.52;;;12.20;88.20;;;;;;5058679;28;20028;-78
2022/04/11 11:13:34;;;;;;;3.95;1.70;;;12.40;85.70;;;;;;5060677;28;20032;-78
2022/04/11 11:16:06;;;;;;;3.22;1.60;;;12.40;84.30;;;;;;5066929;28;20047;-78
2022/04/11 11:18:47;;;;;;;4.68;1.92;;;12.40;84.60;;;;;;5055849;28;20086;-78
2022/04/11 11:21:17;;;;;;;4.53;1.77;;;12.50;83.10;;;;;;5058403;28;20037;-77
2022/04/11 11:24:02;;;;;;;3.63;1.83;;;12.70;85.70;;;;;;5057441;28;20603;-79
2022/04/11 11:26:41;;;;;;;3.42;1.80;;;12.80;81.60;;;;;;5043498;28;20024;-78
2022/04/11 11:29:21;;;;;;;2.85;1.60;;;12.80;82.80;;;;;;5062721;28;20028;-78
2022/04/11 11:31:49;;;;;;;2.85;1.60;;;13.00;84.70;;;;;;5058761;28;20078;-78
2022/04/11 11:34:19;;;;;;;3.95;1.27;;;13.20;87.40;;;;;;5058273;28;20442;-77
2022/04/11 11:36:45;;;;;;;3.00;1.45;;;13.30;82.00;;;;;;5065701;28;20056;-79
2022/04/11 11:39:12;;;;;;;6.35;1.27;;;13.20;82.10;;;;;;5082158;28;20058;-78
2022/04/11 11:41:42;;;;;;;1.90;1.10;;;13.10;79.80;;;;;;5076289;28;20075;-78
2022/04/11 11:44:10;;;;;;;3.63;1.40;;;13.30;75.00;;;;;;5087626;28;20016;-78
2022/04/11 11:46:59;;;;;;;2.58;1.27;;;13.40;78.10;;;;;;5054332;28;20116;-79
2022/04/11 11:49:27;;;;;;;1.67;1.30;;;13.50;76.90;;;;;;5083765;28;20034;-79
2022/04/11 11:51:53;;;;;;;3.08;1.48;;;13.60;78.50;;;;;;5074669;28;20054;-79
2022/04/11 11:54:36;;;;;;;2.05;1.13;;;13.60;78.40;;;;;;5058629;28;20411;-78
2022/04/11 11:57:11;;;;;;;4.43;1.50;;;13.60;73.90;;;;;;5050901;28;20020;-79
2022/04/11 11:59:46;;;;;;;2.45;1.30;;;13.60;73.70;;;;;;5074237;28;20080;-78
2022/04/11 12:04:57;;;;;;;2.85;1.55;;;13.80;72.70;;;;;;5080319;28;20043;-78
2022/04/11 12:07:23;;;;;;;4.57;1.30;;;13.90;70.90;;;;;;5057435;28;20039;-79
2022/04/11 12:09:49;;;;;;;2.63;1.15;;;14.10;75.80;;;;;;5071221;28;20024;-79
2022/04/11 12:12:19;;;;;;;2.30;1.30;;;14.20;71.80;;;;;;5060193;28;20114;-78
2022/04/11 12:15:05;;;;;;;1.50;1.10;;;14.50;72.50;;;;;;5065278;28;20032;-79
2022/04/11 12:17:45;;;;;;;2.00;0.98;;;14.70;67.10;;;;;;5084910;28;20024;-79
2022/04/11 12:20:18;;;;;;;2.25;1.27;;;14.80;66.30;;;;;;5055573;28;20040;-79
2022/04/11 12:23:04;;;;;;;3.30;1.50;;;15.00;63.80;;;;;;5065194;28;20410;-79
2022/04/11 12:25:35;;;;;;;2.92;1.40;;;15.10;61.60;;;;;;5053400;28;20055;-79
2022/04/11 12:28:16;;;;;;;3.20;1.02;;;15.30;65.80;;;;;;5054547;28;20075;-79
2022/04/11 12:30:48;;;;;;;5.38;1.58;;;15.60;65.70;;;;;;5065070;28;20040;-79
2022/04/11 12:33:40;;;;;;;1.77;1.27;;;15.80;63.90;;;;;;5081524;28;20453;-79
2022/04/11 12:36:22;;;;;;;3.47;1.42;;;15.90;62.60;;;;;;5073663;28;20021;-79
2022/04/11 12:38:55;;;;;;;1.50;1.15;;;16.10;61.40;;;;;;5082360;28;20462;-79
2022/04/11 12:41:33;;;;;;;2.22;1.20;;;16.20;63.20;;;;;;5070534;28;20090;-79
2022/04/11 12:44:03;;;;;;;2.38;1.13;;;16.30;59.90;;;;;;5069111;28;20024;-78
2022/04/11 12:46:29;;;;;;;1.55;1.15;;;16.40;59.00;;;;;;5075468;28;20069;-78
2022/04/11 12:48:59;;;;;;;2.72;1.20;;;16.60;57.60;;;;;;5063270;28;20024;-79
2022/04/11 12:51:27;;;;;;;2.00;1.20;;;16.80;57.60;;;;;;5064990;28;20036;-79
2022/04/11 12:53:59;;;;;;;3.42;1.45;;;17.00;58.30;;;;;;5075433;28;20020;-80
2022/04/11 12:56:36;;;;;;;2.50;1.00;;;17.30;59.40;;;;;;5073566;28;20025;-79
2022/04/11 12:59:02;;;;;;;2.88;1.30;;;17.50;56.60;;;;;;5080381;28;20025;-79
2022/04/11 13:01:57;;;;;;;2.00;1.38;;;17.60;53.30;;;;;;5075418;28;20103;-79